sensor_id;sensor_type;location;lat;lon;timestamp;P1;durP1;ratioP1;P2;durP2;ratioP2
68353;SDS011;55274;43.060;25.618;2023-06-22T00:00:48;16.63;;;8.43;;
68353;SDS011;55274;43.060;25.618;2023-06-22T00:03:14;13.60;;;8.10;;
68353;SDS011;55274;43.060;25.618;2023-06-22T00:05:40;12.57;;;8.65;;
68353;SDS011;55274;43.060;25.618;2023-06-22T00:08:06;16.15;;;8.02;;
68353;SDS011;55274;43.060;25.618;2023-06-22T00:10:32;17.20;;;7.65;;
68353;SDS011;55274;43.060;25.618;2023-06-22T00:12:58;15.10;;;8.38;;
68353;SDS011;55274;43.060;25.618;2023-06-22T00:15:24;13.80;;;7.97;;
68353;SDS011;55274;43.060;25.618;2023-06-22T00:17:50;11.77;;;8.20;;
68353;SDS011;55274;43.060;25.618;2023-06-22T00:20:16;16.58;;;8.50;;
68353;SDS011;55274;43.060;25.618;2023-06-22T00:22:43;11.80;;;7.60;;
68353;SDS011;55274;43.060;25.618;2023-06-22T00:25:10;15.63;;;8.73;;
68353;SDS011;55274;43.060;25.618;2023-06-22T00:27:36;13.48;;;9.07;;
68353;SDS011;55274;43.060;25.618;2023-06-22T00:30:03;13.50;;;9.70;;
68353;SDS011;55274;43.060;25.618;2023-06-22T00:32:29;13.73;;;9.05;;
68353;SDS011;55274;43.060;25.618;2023-06-22T00:34:55;11.80;;;7.60;;
68353;SDS011;55274;43.060;25.618;2023-06-22T00:37:20;13.32;;;8.63;;
68353;SDS011;55274;43.060;25.618;2023-06-22T00:39:51;16.13;;;8.02;;
68353;SDS011;55274;43.060;25.618;2023-06-22T00:42:17;14.75;;;8.32;;
68353;SDS011;55274;43.060;25.618;2023-06-22T00:44:43;11.25;;;7.32;;
68353;SDS011;55274;43.060;25.618;2023-06-22T00:47:10;11.05;;;7.93;;
68353;SDS011;55274;43.060;25.618;2023-06-22T00:49:39;11.73;;;7.32;;
68353;SDS011;55274;43.060;25.618;2023-06-22T00:52:05;16.60;;;10.13;;
68353;SDS011;55274;43.060;25.618;2023-06-22T00:54:42;14.63;;;9.63;;
68353;SDS011;55274;43.060;25.618;2023-06-22T00:57:14;17.15;;;9.48;;
68353;SDS011;55274;43.060;25.618;2023-06-22T00:59:44;12.82;;;8.65;;
68353;SDS011;55274;43.060;25.618;2023-06-22T01:02:11;17.98;;;8.20;;
68353;SDS011;55274;43.060;25.618;2023-06-22T01:04:37;12.32;;;7.65;;
68353;SDS011;55274;43.060;25.618;2023-06-22T01:09:58;18.75;;;8.32;;
68353;SDS011;55274;43.060;25.618;2023-06-22T01:12:31;14.93;;;7.78;;
68353;SDS011;55274;43.060;25.618;2023-06-22T01:15:25;19.38;;;8.50;;
68353;SDS011;55274;43.060;25.618;2023-06-22T01:17:50;14.07;;;8.70;;
68353;SDS011;55274;43.060;25.618;2023-06-22T01:20:18;16.23;;;7.97;;
68353;SDS011;55274;43.060;25.618;2023-06-22T01:23:05;16.40;;;8.77;;
68353;SDS011;55274;43.060;25.618;2023-06-22T01:26:38;16.02;;;10.27;;
68353;SDS011;55274;43.060;25.618;2023-06-22T01:28:42;18.75;;;10.43;;
68353;SDS011;55274;43.060;25.618;2023-06-22T01:31:13;20.80;;;10.38;;
68353;SDS011;55274;43.060;25.618;2023-06-22T01:33:42;19.02;;;11.35;;
68353;SDS011;55274;43.060;25.618;2023-06-22T01:36:10;20.70;;;11.65;;
68353;SDS011;55274;43.060;25.618;2023-06-22T01:38:37;19.30;;;11.27;;
68353;SDS011;55274;43.060;25.618;2023-06-22T01:41:03;18.58;;;10.98;;
68353;SDS011;55274;43.060;25.618;2023-06-22T01:43:29;16.67;;;10.23;;
68353;SDS011;55274;43.060;25.618;2023-06-22T01:45:56;19.17;;;10.27;;
68353;SDS011;55274;43.060;25.618;2023-06-22T01:48:23;14.13;;;9.02;;
68353;SDS011;55274;43.060;25.618;2023-06-22T01:50:51;20.33;;;9.80;;
68353;SDS011;55274;43.060;25.618;2023-06-22T01:53:20;21.52;;;10.80;;
68353;SDS011;55274;43.060;25.618;2023-06-22T01:55:47;17.17;;;10.68;;
68353;SDS011;55274;43.060;25.618;2023-06-22T01:58:13;16.40;;;9.80;;
68353;SDS011;55274;43.060;25.618;2023-06-22T02:00:40;16.00;;;9.52;;
68353;SDS011;55274;43.060;25.618;2023-06-22T02:03:13;16.45;;;9.98;;
68353;SDS011;55274;43.060;25.618;2023-06-22T02:05:52;19.63;;;10.57;;
68353;SDS011;55274;43.060;25.618;2023-06-22T02:08:25;17.23;;;10.10;;
68353;SDS011;55274;43.060;25.618;2023-06-22T02:10:55;18.60;;;9.73;;
68353;SDS011;55274;43.060;25.618;2023-06-22T02:13:24;19.80;;;9.35;;
68353;SDS011;55274;43.060;25.618;2023-06-22T02:15:51;17.35;;;11.25;;
68353;SDS011;55274;43.060;25.618;2023-06-22T02:18:18;20.27;;;10.52;;
68353;SDS011;55274;43.060;25.618;2023-06-22T02:20:45;18.38;;;10.85;;
68353;SDS011;55274;43.060;25.618;2023-06-22T02:23:11;19.33;;;11.02;;
68353;SDS011;55274;43.060;25.618;2023-06-22T02:25:36;18.23;;;10.77;;
68353;SDS011;55274;43.060;25.618;2023-06-22T02:28:03;23.55;;;13.60;;
68353;SDS011;55274;43.060;25.618;2023-06-22T02:30:29;24.60;;;12.27;;
68353;SDS011;55274;43.060;25.618;2023-06-22T02:32:55;27.60;;;11.77;;
68353;SDS011;55274;43.060;25.618;2023-06-22T02:35:27;26.75;;;12.40;;
68353;SDS011;55274;43.060;25.618;2023-06-22T02:38:00;16.17;;;10.60;;
68353;SDS011;55274;43.060;25.618;2023-06-22T02:40:27;19.65;;;9.48;;
68353;SDS011;55274;43.060;25.618;2023-06-22T02:42:54;17.55;;;10.23;;
68353;SDS011;55274;43.060;25.618;2023-06-22T02:45:20;18.23;;;10.00;;
68353;SDS011;55274;43.060;25.618;2023-06-22T02:47:46;27.55;;;11.60;;
68353;SDS011;55274;43.060;25.618;2023-06-22T02:50:13;20.02;;;10.30;;
68353;SDS011;55274;43.060;25.618;2023-06-22T02:52:39;20.08;;;9.77;;
68353;SDS011;55274;43.060;25.618;2023-06-22T02:55:05;21.17;;;10.50;;
68353;SDS011;55274;43.060;25.618;2023-06-22T02:57:32;19.00;;;10.02;;
68353;SDS011;55274;43.060;25.618;2023-06-22T02:59:58;26.98;;;9.45;;
68353;SDS011;55274;43.060;25.618;2023-06-22T03:02:24;17.05;;;9.80;;
68353;SDS011;55274;43.060;25.618;2023-06-22T03:04:51;20.80;;;10.00;;
68353;SDS011;55274;43.060;25.618;2023-06-22T03:07:19;16.45;;;9.60;;
68353;SDS011;55274;43.060;25.618;2023-06-22T03:09:45;18.38;;;9.48;;
68353;SDS011;55274;43.060;25.618;2023-06-22T03:12:11;22.13;;;8.73;;
68353;SDS011;55274;43.060;25.618;2023-06-22T03:14:37;17.83;;;8.38;;
68353;SDS011;55274;43.060;25.618;2023-06-22T03:17:04;21.88;;;10.60;;
68353;SDS011;55274;43.060;25.618;2023-06-22T03:19:30;21.92;;;9.23;;
68353;SDS011;55274;43.060;25.618;2023-06-22T03:21:57;13.50;;;9.02;;
68353;SDS011;55274;43.060;25.618;2023-06-22T03:24:24;20.35;;;9.52;;
68353;SDS011;55274;43.060;25.618;2023-06-22T03:26:50;15.57;;;8.57;;
68353;SDS011;55274;43.060;25.618;2023-06-22T03:29:16;13.07;;;8.35;;
68353;SDS011;55274;43.060;25.618;2023-06-22T03:31:41;11.95;;;7.63;;
68353;SDS011;55274;43.060;25.618;2023-06-22T03:34:07;20.35;;;9.30;;
68353;SDS011;55274;43.060;25.618;2023-06-22T03:36:33;9.90;;;7.82;;
68353;SDS011;55274;43.060;25.618;2023-06-22T03:38:59;12.32;;;7.53;;
68353;SDS011;55274;43.060;25.618;2023-06-22T03:41:25;17.52;;;9.77;;
68353;SDS011;55274;43.060;25.618;2023-06-22T03:43:50;13.40;;;9.10;;
68353;SDS011;55274;43.060;25.618;2023-06-22T03:46:16;15.95;;;8.52;;
68353;SDS011;55274;43.060;25.618;2023-06-22T03:48:42;13.25;;;8.52;;
68353;SDS011;55274;43.060;25.618;2023-06-22T03:51:08;15.70;;;9.57;;
68353;SDS011;55274;43.060;25.618;2023-06-22T03:53:34;17.23;;;9.18;;
68353;SDS011;55274;43.060;25.618;2023-06-22T03:56:00;16.20;;;9.18;;
68353;SDS011;55274;43.060;25.618;2023-06-22T03:58:26;13.27;;;9.63;;
68353;SDS011;55274;43.060;25.618;2023-06-22T04:00:54;14.52;;;9.18;;
68353;SDS011;55274;43.060;25.618;2023-06-22T04:03:19;15.75;;;9.55;;
68353;SDS011;55274;43.060;25.618;2023-06-22T04:05:45;21.15;;;10.63;;
68353;SDS011;55274;43.060;25.618;2023-06-22T04:08:12;16.98;;;10.10;;
68353;SDS011;55274;43.060;25.618;2023-06-22T04:10:39;20.15;;;10.18;;
68353;SDS011;55274;43.060;25.618;2023-06-22T04:13:05;19.20;;;9.90;;
68353;SDS011;55274;43.060;25.618;2023-06-22T04:15:31;18.35;;;11.25;;
68353;SDS011;55274;43.060;25.618;2023-06-22T04:17:56;22.33;;;11.70;;
68353;SDS011;55274;43.060;25.618;2023-06-22T04:20:22;20.00;;;11.93;;
68353;SDS011;55274;43.060;25.618;2023-06-22T04:22:52;23.02;;;10.88;;
68353;SDS011;55274;43.060;25.618;2023-06-22T04:25:19;20.35;;;11.98;;
68353;SDS011;55274;43.060;25.618;2023-06-22T04:27:45;20.95;;;10.95;;
68353;SDS011;55274;43.060;25.618;2023-06-22T04:30:11;19.67;;;10.52;;
68353;SDS011;55274;43.060;25.618;2023-06-22T04:32:41;19.40;;;10.73;;
68353;SDS011;55274;43.060;25.618;2023-06-22T04:35:07;21.70;;;10.05;;
68353;SDS011;55274;43.060;25.618;2023-06-22T04:37:33;21.00;;;9.95;;
68353;SDS011;55274;43.060;25.618;2023-06-22T04:39:59;18.00;;;9.00;;
68353;SDS011;55274;43.060;25.618;2023-06-22T04:42:28;19.48;;;8.60;;
68353;SDS011;55274;43.060;25.618;2023-06-22T04:44:54;17.20;;;8.70;;
68353;SDS011;55274;43.060;25.618;2023-06-22T04:47:20;15.00;;;7.80;;
68353;SDS011;55274;43.060;25.618;2023-06-22T04:49:45;19.55;;;7.65;;
68353;SDS011;55274;43.060;25.618;2023-06-22T04:52:11;23.88;;;8.57;;
68353;SDS011;55274;43.060;25.618;2023-06-22T04:54:39;12.07;;;8.02;;
68353;SDS011;55274;43.060;25.618;2023-06-22T04:57:13;16.38;;;7.93;;
68353;SDS011;55274;43.060;25.618;2023-06-22T04:59:40;16.23;;;8.40;;
68353;SDS011;55274;43.060;25.618;2023-06-22T05:02:07;12.05;;;7.50;;
68353;SDS011;55274;43.060;25.618;2023-06-22T05:04:33;14.50;;;7.53;;
68353;SDS011;55274;43.060;25.618;2023-06-22T05:07:01;13.90;;;8.18;;
68353;SDS011;55274;43.060;25.618;2023-06-22T05:09:27;14.70;;;8.57;;
68353;SDS011;55274;43.060;25.618;2023-06-22T05:11:54;13.63;;;8.27;;
68353;SDS011;55274;43.060;25.618;2023-06-22T05:14:24;16.05;;;8.75;;
68353;SDS011;55274;43.060;25.618;2023-06-22T05:16:50;15.82;;;10.35;;
68353;SDS011;55274;43.060;25.618;2023-06-22T05:19:17;17.88;;;11.73;;
68353;SDS011;55274;43.060;25.618;2023-06-22T05:21:43;25.20;;;11.02;;
68353;SDS011;55274;43.060;25.618;2023-06-22T05:24:08;15.25;;;10.35;;
68353;SDS011;55274;43.060;25.618;2023-06-22T05:26:34;17.50;;;9.48;;
68353;SDS011;55274;43.060;25.618;2023-06-22T05:29:00;15.65;;;9.27;;
68353;SDS011;55274;43.060;25.618;2023-06-22T05:31:27;15.20;;;8.23;;
68353;SDS011;55274;43.060;25.618;2023-06-22T05:33:54;16.10;;;7.57;;
68353;SDS011;55274;43.060;25.618;2023-06-22T05:36:20;16.15;;;6.82;;
68353;SDS011;55274;43.060;25.618;2023-06-22T05:38:49;11.52;;;7.15;;
68353;SDS011;55274;43.060;25.618;2023-06-22T05:41:14;18.10;;;7.00;;
68353;SDS011;55274;43.060;25.618;2023-06-22T05:43:41;14.32;;;7.65;;
68353;SDS011;55274;43.060;25.618;2023-06-22T05:46:07;11.20;;;6.93;;
68353;SDS011;55274;43.060;25.618;2023-06-22T05:48:33;6.93;;;6.22;;
68353;SDS011;55274;43.060;25.618;2023-06-22T05:50:59;8.55;;;6.75;;
68353;SDS011;55274;43.060;25.618;2023-06-22T05:53:25;14.07;;;7.72;;
68353;SDS011;55274;43.060;25.618;2023-06-22T05:55:51;13.25;;;7.68;;
68353;SDS011;55274;43.060;25.618;2023-06-22T05:58:17;13.50;;;7.45;;
68353;SDS011;55274;43.060;25.618;2023-06-22T06:00:43;15.80;;;7.05;;
68353;SDS011;55274;43.060;25.618;2023-06-22T06:03:09;15.30;;;6.95;;
68353;SDS011;55274;43.060;25.618;2023-06-22T06:05:36;8.70;;;6.65;;
68353;SDS011;55274;43.060;25.618;2023-06-22T06:08:03;13.75;;;7.30;;
68353;SDS011;55274;43.060;25.618;2023-06-22T06:10:31;11.85;;;7.60;;
68353;SDS011;55274;43.060;25.618;2023-06-22T06:12:58;17.70;;;9.38;;
68353;SDS011;55274;43.060;25.618;2023-06-22T06:15:27;19.45;;;12.40;;
68353;SDS011;55274;43.060;25.618;2023-06-22T06:17:53;42.85;;;24.85;;
68353;SDS011;55274;43.060;25.618;2023-06-22T06:20:19;24.25;;;17.45;;
68353;SDS011;55274;43.060;25.618;2023-06-22T06:22:46;31.40;;;19.10;;
68353;SDS011;55274;43.060;25.618;2023-06-22T06:25:13;33.72;;;22.13;;
68353;SDS011;55274;43.060;25.618;2023-06-22T06:27:45;25.52;;;16.88;;
68353;SDS011;55274;43.060;25.618;2023-06-22T06:30:12;29.80;;;21.20;;
68353;SDS011;55274;43.060;25.618;2023-06-22T06:32:39;39.38;;;27.60;;
68353;SDS011;55274;43.060;25.618;2023-06-22T06:35:06;38.83;;;26.33;;
68353;SDS011;55274;43.060;25.618;2023-06-22T06:37:35;38.10;;;23.08;;
68353;SDS011;55274;43.060;25.618;2023-06-22T06:40:05;32.97;;;19.88;;
68353;SDS011;55274;43.060;25.618;2023-06-22T06:42:45;26.15;;;17.13;;
68353;SDS011;55274;43.060;25.618;2023-06-22T06:45:14;35.15;;;19.27;;
68353;SDS011;55274;43.060;25.618;2023-06-22T06:47:42;26.02;;;18.48;;
68353;SDS011;55274;43.060;25.618;2023-06-22T06:50:08;24.48;;;16.20;;
68353;SDS011;55274;43.060;25.618;2023-06-22T06:52:35;26.95;;;15.23;;
68353;SDS011;55274;43.060;25.618;2023-06-22T06:55:01;19.83;;;14.50;;
68353;SDS011;55274;43.060;25.618;2023-06-22T06:57:29;26.73;;;15.77;;
68353;SDS011;55274;43.060;25.618;2023-06-22T06:59:56;20.65;;;15.10;;
68353;SDS011;55274;43.060;25.618;2023-06-22T07:02:22;18.88;;;13.50;;
68353;SDS011;55274;43.060;25.618;2023-06-22T07:04:48;22.42;;;13.93;;
68353;SDS011;55274;43.060;25.618;2023-06-22T07:07:14;22.77;;;15.48;;
68353;SDS011;55274;43.060;25.618;2023-06-22T07:09:40;21.63;;;15.00;;
68353;SDS011;55274;43.060;25.618;2023-06-22T07:12:06;23.88;;;13.15;;
68353;SDS011;55274;43.060;25.618;2023-06-22T07:14:32;24.73;;;12.65;;
68353;SDS011;55274;43.060;25.618;2023-06-22T07:16:58;16.33;;;11.88;;
68353;SDS011;55274;43.060;25.618;2023-06-22T07:19:25;13.23;;;10.73;;
68353;SDS011;55274;43.060;25.618;2023-06-22T07:21:54;14.38;;;11.18;;
68353;SDS011;55274;43.060;25.618;2023-06-22T07:24:20;12.65;;;9.93;;
68353;SDS011;55274;43.060;25.618;2023-06-22T07:26:50;12.25;;;9.25;;
68353;SDS011;55274;43.060;25.618;2023-06-22T07:29:19;12.15;;;9.15;;
68353;SDS011;55274;43.060;25.618;2023-06-22T07:31:46;15.38;;;9.45;;
68353;SDS011;55274;43.060;25.618;2023-06-22T07:34:12;14.50;;;10.88;;
68353;SDS011;55274;43.060;25.618;2023-06-22T07:36:38;14.93;;;10.40;;
68353;SDS011;55274;43.060;25.618;2023-06-22T07:39:04;23.13;;;10.30;;
68353;SDS011;55274;43.060;25.618;2023-06-22T07:41:30;18.27;;;9.75;;
68353;SDS011;55274;43.060;25.618;2023-06-22T07:43:57;11.90;;;8.48;;
68353;SDS011;55274;43.060;25.618;2023-06-22T07:46:23;53.70;;;17.92;;
68353;SDS011;55274;43.060;25.618;2023-06-22T07:48:49;11.35;;;8.57;;
68353;SDS011;55274;43.060;25.618;2023-06-22T07:51:15;20.95;;;8.98;;
68353;SDS011;55274;43.060;25.618;2023-06-22T07:53:41;13.85;;;9.13;;
68353;SDS011;55274;43.060;25.618;2023-06-22T07:56:11;15.77;;;9.20;;
68353;SDS011;55274;43.060;25.618;2023-06-22T07:58:37;11.95;;;9.65;;
68353;SDS011;55274;43.060;25.618;2023-06-22T08:01:03;10.68;;;8.80;;
68353;SDS011;55274;43.060;25.618;2023-06-22T08:03:29;20.38;;;9.48;;
68353;SDS011;55274;43.060;25.618;2023-06-22T08:05:55;13.10;;;8.82;;
68353;SDS011;55274;43.060;25.618;2023-06-22T08:08:21;25.23;;;13.70;;
68353;SDS011;55274;43.060;25.618;2023-06-22T08:10:46;10.52;;;7.93;;
68353;SDS011;55274;43.060;25.618;2023-06-22T08:13:12;11.13;;;7.10;;
68353;SDS011;55274;43.060;25.618;2023-06-22T08:15:38;8.93;;;8.02;;
68353;SDS011;55274;43.060;25.618;2023-06-22T08:18:03;10.27;;;7.60;;
68353;SDS011;55274;43.060;25.618;2023-06-22T08:20:30;12.38;;;8.70;;
68353;SDS011;55274;43.060;25.618;2023-06-22T08:22:56;14.00;;;7.93;;
68353;SDS011;55274;43.060;25.618;2023-06-22T08:25:23;8.40;;;6.88;;
68353;SDS011;55274;43.060;25.618;2023-06-22T08:27:49;8.55;;;6.70;;
68353;SDS011;55274;43.060;25.618;2023-06-22T08:30:15;10.90;;;7.20;;
68353;SDS011;55274;43.060;25.618;2023-06-22T08:32:42;7.55;;;6.63;;
68353;SDS011;55274;43.060;25.618;2023-06-22T08:35:08;11.40;;;7.45;;
68353;SDS011;55274;43.060;25.618;2023-06-22T08:37:35;9.13;;;6.93;;
68353;SDS011;55274;43.060;25.618;2023-06-22T08:40:02;8.88;;;7.32;;
68353;SDS011;55274;43.060;25.618;2023-06-22T08:42:35;11.82;;;7.03;;
68353;SDS011;55274;43.060;25.618;2023-06-22T08:45:02;16.30;;;8.30;;
68353;SDS011;55274;43.060;25.618;2023-06-22T08:47:28;7.88;;;6.57;;
68353;SDS011;55274;43.060;25.618;2023-06-22T08:49:54;9.10;;;7.13;;
68353;SDS011;55274;43.060;25.618;2023-06-22T08:52:20;11.90;;;6.85;;
68353;SDS011;55274;43.060;25.618;2023-06-22T08:54:46;8.82;;;7.45;;
68353;SDS011;55274;43.060;25.618;2023-06-22T08:57:12;10.85;;;7.63;;
68353;SDS011;55274;43.060;25.618;2023-06-22T08:59:38;13.07;;;10.38;;
68353;SDS011;55274;43.060;25.618;2023-06-22T09:02:05;13.82;;;9.93;;
68353;SDS011;55274;43.060;25.618;2023-06-22T09:04:31;13.82;;;10.10;;
68353;SDS011;55274;43.060;25.618;2023-06-22T09:07:00;15.88;;;11.35;;
68353;SDS011;55274;43.060;25.618;2023-06-22T09:09:26;14.88;;;10.02;;
68353;SDS011;55274;43.060;25.618;2023-06-22T09:11:52;13.25;;;8.57;;
68353;SDS011;55274;43.060;25.618;2023-06-22T09:14:18;9.63;;;8.68;;
68353;SDS011;55274;43.060;25.618;2023-06-22T09:16:44;13.60;;;8.50;;
68353;SDS011;55274;43.060;25.618;2023-06-22T09:19:10;12.68;;;8.90;;
68353;SDS011;55274;43.060;25.618;2023-06-22T09:21:36;12.38;;;9.55;;
68353;SDS011;55274;43.060;25.618;2023-06-22T09:24:01;11.27;;;9.38;;
68353;SDS011;55274;43.060;25.618;2023-06-22T09:26:28;10.98;;;8.55;;
68353;SDS011;55274;43.060;25.618;2023-06-22T09:28:53;11.40;;;8.27;;
68353;SDS011;55274;43.060;25.618;2023-06-22T09:31:19;12.15;;;7.38;;
68353;SDS011;55274;43.060;25.618;2023-06-22T09:33:52;11.73;;;8.10;;
68353;SDS011;55274;43.060;25.618;2023-06-22T09:36:19;10.70;;;7.65;;
68353;SDS011;55274;43.060;25.618;2023-06-22T09:38:45;9.40;;;7.57;;
68353;SDS011;55274;43.060;25.618;2023-06-22T09:41:11;8.57;;;6.57;;
68353;SDS011;55274;43.060;25.618;2023-06-22T09:43:37;8.25;;;7.00;;
68353;SDS011;55274;43.060;25.618;2023-06-22T09:46:03;9.95;;;7.30;;
68353;SDS011;55274;43.060;25.618;2023-06-22T09:48:29;11.45;;;7.57;;
68353;SDS011;55274;43.060;25.618;2023-06-22T09:50:55;9.07;;;6.72;;
68353;SDS011;55274;43.060;25.618;2023-06-22T09:53:21;9.18;;;7.55;;
68353;SDS011;55274;43.060;25.618;2023-06-22T09:55:47;14.55;;;7.30;;
68353;SDS011;55274;43.060;25.618;2023-06-22T09:58:13;8.57;;;6.63;;
68353;SDS011;55274;43.060;25.618;2023-06-22T10:00:39;9.85;;;7.18;;
68353;SDS011;55274;43.060;25.618;2023-06-22T10:03:06;7.15;;;6.15;;
68353;SDS011;55274;43.060;25.618;2023-06-22T10:05:32;8.20;;;6.43;;
68353;SDS011;55274;43.060;25.618;2023-06-22T10:07:58;10.55;;;6.82;;
68353;SDS011;55274;43.060;25.618;2023-06-22T10:10:24;9.75;;;6.55;;
68353;SDS011;55274;43.060;25.618;2023-06-22T10:12:57;7.30;;;6.55;;
68353;SDS011;55274;43.060;25.618;2023-06-22T10:15:27;7.70;;;6.90;;
68353;SDS011;55274;43.060;25.618;2023-06-22T10:17:53;8.00;;;6.40;;
68353;SDS011;55274;43.060;25.618;2023-06-22T10:20:19;9.32;;;6.90;;
68353;SDS011;55274;43.060;25.618;2023-06-22T10:22:45;10.30;;;6.95;;
68353;SDS011;55274;43.060;25.618;2023-06-22T10:25:12;8.48;;;7.30;;
68353;SDS011;55274;43.060;25.618;2023-06-22T10:27:38;7.53;;;6.28;;
68353;SDS011;55274;43.060;25.618;2023-06-22T10:30:08;7.78;;;6.60;;
68353;SDS011;55274;43.060;25.618;2023-06-22T10:32:35;7.70;;;6.95;;
68353;SDS011;55274;43.060;25.618;2023-06-22T10:35:01;125.35;;;33.85;;
68353;SDS011;55274;43.060;25.618;2023-06-22T10:37:27;14.90;;;6.90;;
68353;SDS011;55274;43.060;25.618;2023-06-22T10:39:53;9.93;;;6.45;;
68353;SDS011;55274;43.060;25.618;2023-06-22T10:42:19;10.80;;;7.25;;
68353;SDS011;55274;43.060;25.618;2023-06-22T10:44:45;6.72;;;5.70;;
68353;SDS011;55274;43.060;25.618;2023-06-22T10:47:10;6.88;;;5.63;;
68353;SDS011;55274;43.060;25.618;2023-06-22T10:49:38;7.97;;;6.05;;
68353;SDS011;55274;43.060;25.618;2023-06-22T10:52:04;7.07;;;5.05;;
68353;SDS011;55274;43.060;25.618;2023-06-22T10:54:32;7.03;;;5.60;;
68353;SDS011;55274;43.060;25.618;2023-06-22T10:56:59;7.10;;;5.05;;
68353;SDS011;55274;43.060;25.618;2023-06-22T10:59:25;7.50;;;5.90;;
68353;SDS011;55274;43.060;25.618;2023-06-22T11:01:51;8.45;;;5.53;;
68353;SDS011;55274;43.060;25.618;2023-06-22T11:04:18;17.17;;;6.57;;
68353;SDS011;55274;43.060;25.618;2023-06-22T11:06:43;12.93;;;5.22;;
68353;SDS011;55274;43.060;25.618;2023-06-22T11:09:09;7.90;;;5.53;;
68353;SDS011;55274;43.060;25.618;2023-06-22T11:11:35;10.90;;;6.05;;
68353;SDS011;55274;43.060;25.618;2023-06-22T11:14:01;12.20;;;5.88;;
68353;SDS011;55274;43.060;25.618;2023-06-22T11:16:27;25.35;;;10.52;;
68353;SDS011;55274;43.060;25.618;2023-06-22T11:18:52;10.13;;;5.40;;
68353;SDS011;55274;43.060;25.618;2023-06-22T11:21:18;12.98;;;6.30;;
68353;SDS011;55274;43.060;25.618;2023-06-22T11:23:44;11.88;;;6.32;;
68353;SDS011;55274;43.060;25.618;2023-06-22T11:26:10;13.52;;;6.40;;
68353;SDS011;55274;43.060;25.618;2023-06-22T11:28:36;8.38;;;5.65;;
68353;SDS011;55274;43.060;25.618;2023-06-22T11:31:02;7.18;;;6.05;;
68353;SDS011;55274;43.060;25.618;2023-06-22T11:33:28;8.60;;;6.40;;
68353;SDS011;55274;43.060;25.618;2023-06-22T11:35:54;7.13;;;5.78;;
68353;SDS011;55274;43.060;25.618;2023-06-22T11:38:21;8.60;;;5.22;;
68353;SDS011;55274;43.060;25.618;2023-06-22T11:40:47;10.55;;;5.70;;
68353;SDS011;55274;43.060;25.618;2023-06-22T11:43:13;8.40;;;5.38;;
68353;SDS011;55274;43.060;25.618;2023-06-22T11:45:40;9.38;;;5.80;;
68353;SDS011;55274;43.060;25.618;2023-06-22T11:48:05;9.30;;;5.38;;
68353;SDS011;55274;43.060;25.618;2023-06-22T11:50:31;16.58;;;5.70;;
68353;SDS011;55274;43.060;25.618;2023-06-22T11:53:01;5.45;;;4.70;;
68353;SDS011;55274;43.060;25.618;2023-06-22T11:55:28;5.35;;;4.85;;
68353;SDS011;55274;43.060;25.618;2023-06-22T11:57:55;7.93;;;4.90;;
68353;SDS011;55274;43.060;25.618;2023-06-22T12:00:23;6.85;;;5.05;;
68353;SDS011;55274;43.060;25.618;2023-06-22T12:02:50;10.05;;;5.07;;
68353;SDS011;55274;43.060;25.618;2023-06-22T12:05:19;15.02;;;5.68;;
68353;SDS011;55274;43.060;25.618;2023-06-22T12:07:46;9.55;;;5.00;;
68353;SDS011;55274;43.060;25.618;2023-06-22T12:10:12;6.03;;;5.00;;
68353;SDS011;55274;43.060;25.618;2023-06-22T12:12:38;6.97;;;5.13;;
68353;SDS011;55274;43.060;25.618;2023-06-22T12:15:04;16.92;;;5.50;;
68353;SDS011;55274;43.060;25.618;2023-06-22T12:17:30;7.55;;;5.43;;
68353;SDS011;55274;43.060;25.618;2023-06-22T12:19:56;5.40;;;4.75;;
68353;SDS011;55274;43.060;25.618;2023-06-22T12:22:23;6.25;;;4.80;;
68353;SDS011;55274;43.060;25.618;2023-06-22T12:24:49;7.68;;;5.10;;
68353;SDS011;55274;43.060;25.618;2023-06-22T12:27:16;9.43;;;5.80;;
68353;SDS011;55274;43.060;25.618;2023-06-22T12:29:45;8.85;;;5.30;;
68353;SDS011;55274;43.060;25.618;2023-06-22T12:32:11;5.28;;;4.70;;
68353;SDS011;55274;43.060;25.618;2023-06-22T12:34:41;25.50;;;6.03;;
68353;SDS011;55274;43.060;25.618;2023-06-22T12:37:07;5.60;;;4.63;;
68353;SDS011;55274;43.060;25.618;2023-06-22T12:39:33;5.18;;;4.68;;
68353;SDS011;55274;43.060;25.618;2023-06-22T12:41:59;7.93;;;4.95;;
68353;SDS011;55274;43.060;25.618;2023-06-22T12:44:25;6.65;;;4.97;;
68353;SDS011;55274;43.060;25.618;2023-06-22T12:46:51;5.78;;;4.55;;
68353;SDS011;55274;43.060;25.618;2023-06-22T12:49:17;5.60;;;4.57;;
68353;SDS011;55274;43.060;25.618;2023-06-22T12:51:43;7.95;;;4.53;;
68353;SDS011;55274;43.060;25.618;2023-06-22T12:54:09;5.55;;;4.55;;
68353;SDS011;55274;43.060;25.618;2023-06-22T12:56:36;8.88;;;5.25;;
68353;SDS011;55274;43.060;25.618;2023-06-22T12:59:06;11.10;;;5.97;;
68353;SDS011;55274;43.060;25.618;2023-06-22T13:01:32;5.07;;;4.57;;
68353;SDS011;55274;43.060;25.618;2023-06-22T13:03:58;7.38;;;4.78;;
68353;SDS011;55274;43.060;25.618;2023-06-22T13:06:24;7.93;;;5.03;;
68353;SDS011;55274;43.060;25.618;2023-06-22T13:08:50;6.47;;;5.03;;
68353;SDS011;55274;43.060;25.618;2023-06-22T13:11:16;6.88;;;4.82;;
68353;SDS011;55274;43.060;25.618;2023-06-22T13:13:43;7.50;;;4.93;;
68353;SDS011;55274;43.060;25.618;2023-06-22T13:16:09;8.15;;;5.32;;
68353;SDS011;55274;43.060;25.618;2023-06-22T13:18:35;6.43;;;4.60;;
68353;SDS011;55274;43.060;25.618;2023-06-22T13:21:02;9.65;;;5.30;;
68353;SDS011;55274;43.060;25.618;2023-06-22T13:23:29;17.85;;;4.90;;
68353;SDS011;55274;43.060;25.618;2023-06-22T13:25:55;7.25;;;4.40;;
68353;SDS011;55274;43.060;25.618;2023-06-22T13:28:21;6.03;;;4.47;;
68353;SDS011;55274;43.060;25.618;2023-06-22T13:30:47;13.77;;;5.10;;
68353;SDS011;55274;43.060;25.618;2023-06-22T13:33:13;11.30;;;4.93;;
68353;SDS011;55274;43.060;25.618;2023-06-22T13:35:39;13.07;;;5.22;;
68353;SDS011;55274;43.060;25.618;2023-06-22T13:38:07;12.73;;;5.28;;
68353;SDS011;55274;43.060;25.618;2023-06-22T13:40:34;10.48;;;4.88;;
68353;SDS011;55274;43.060;25.618;2023-06-22T13:43:00;5.82;;;4.80;;
68353;SDS011;55274;43.060;25.618;2023-06-22T13:45:26;14.52;;;8.23;;
68353;SDS011;55274;43.060;25.618;2023-06-22T13:47:52;9.18;;;5.55;;
68353;SDS011;55274;43.060;25.618;2023-06-22T13:50:18;6.70;;;4.63;;
68353;SDS011;55274;43.060;25.618;2023-06-22T13:52:44;5.60;;;4.60;;
68353;SDS011;55274;43.060;25.618;2023-06-22T13:55:09;5.18;;;4.68;;
68353;SDS011;55274;43.060;25.618;2023-06-22T13:57:36;15.60;;;5.80;;
68353;SDS011;55274;43.060;25.618;2023-06-22T14:00:03;16.42;;;6.78;;
68353;SDS011;55274;43.060;25.618;2023-06-22T14:02:33;15.10;;;6.93;;
68353;SDS011;55274;43.060;25.618;2023-06-22T14:04:59;7.25;;;5.38;;
68353;SDS011;55274;43.060;25.618;2023-06-22T14:07:25;6.35;;;4.80;;
68353;SDS011;55274;43.060;25.618;2023-06-22T14:09:51;5.68;;;4.90;;
68353;SDS011;55274;43.060;25.618;2023-06-22T14:12:17;6.18;;;5.57;;
68353;SDS011;55274;43.060;25.618;2023-06-22T14:14:43;10.07;;;5.38;;
68353;SDS011;55274;43.060;25.618;2023-06-22T14:17:09;6.38;;;5.22;;
68353;SDS011;55274;43.060;25.618;2023-06-22T14:19:35;8.65;;;5.43;;
68353;SDS011;55274;43.060;25.618;2023-06-22T14:22:01;7.47;;;4.75;;